Time;durP1;ratioP1;P1;durP2;ratioP2;P2;SDS_P1;SDS_P2;PMS_P1;PMS_P2;Temp;Humidity;BMP_temperature;BMP_pressure;BME280_temperature;BME280_humidity;BME280_pressure;Samples;Min_cycle;Max_cycle;Signal;HPM_P1;HPM_P2
2023/05/01 00:00:47;;;;;;;2.83;1.52;;;11.70;85.40;;;;;;6004291;23;20164;-72
2023/05/01 00:03:14;;;;;;;1.80;1.80;;;11.70;85.60;;;;;;6006566;23;20208;-72
2023/05/01 00:05:39;;;;;;;1.30;1.30;;;11.60;85.80;;;;;;6007811;23;20156;-72
2023/05/01 00:08:05;;;;;;;1.20;1.20;;;11.50;86.00;;;;;;6008138;23;20188;-72
2023/05/01 00:10:33;;;;;;;1.38;1.38;;;11.50;86.30;;;;;;6007612;23;20619;-74
2023/05/01 00:12:59;;;;;;;1.45;1.40;;;11.50;86.60;;;;;;6008173;23;20955;-74
2023/05/01 00:15:25;;;;;;;1.15;1.15;;;11.50;86.70;;;;;;6008179;23;20180;-73
2023/05/01 00:17:52;;;;;;;1.08;1.08;;;11.40;86.80;;;;;;6007695;23;20853;-72
2023/05/01 00:20:18;;;;;;;1.67;1.58;;;11.40;87.00;;;;;;6006516;23;20168;-73
2023/05/01 00:22:43;;;;;;;1.30;1.20;;;11.40;87.00;;;;;;6008051;23;20609;-73
2023/05/01 00:25:09;;;;;;;1.45;1.38;;;11.40;87.10;;;;;;6007933;23;20185;-72
2023/05/01 00:27:35;;;;;;;1.08;1.08;;;11.50;86.30;;;;;;6006056;23;20231;-72
2023/05/01 00:30:01;;;;;;;1.15;1.15;;;11.50;86.60;;;;;;6008117;23;20656;-72
2023/05/01 00:32:26;;;;;;;1.23;1.23;;;11.50;86.20;;;;;;6007495;23;20155;-72
2023/05/01 00:34:53;;;;;;;1.23;1.23;;;11.60;86.10;;;;;;6008213;23;20163;-73
2023/05/01 00:37:18;;;;;;;1.35;1.35;;;11.50;86.30;;;;;;6005926;23;20653;-73
2023/05/01 00:39:44;;;;;;;1.20;1.20;;;11.60;85.70;;;;;;6007477;23;20153;-74
2023/05/01 00:42:10;;;;;;;1.27;1.27;;;11.60;86.30;;;;;;6007464;23;20176;-73
2023/05/01 00:44:36;;;;;;;1.08;1.08;;;11.50;86.00;;;;;;6005879;23;20164;-73
2023/05/01 00:47:03;;;;;;;1.17;1.17;;;11.50;86.70;;;;;;6007328;23;20188;-73
2023/05/01 00:49:28;;;;;;;1.27;1.27;;;11.40;87.10;;;;;;6006447;23;20519;-72
2023/05/01 00:51:54;;;;;;;2.05;1.63;;;11.30;87.30;;;;;;6007292;23;20235;-73
2023/05/01 00:54:21;;;;;;;1.48;1.38;;;11.20;87.70;;;;;;6006162;23;20164;-73
2023/05/01 00:56:48;;;;;;;1.48;1.40;;;11.20;88.00;;;;;;6006073;23;20247;-73
2023/05/01 00:59:14;;;;;;;1.38;1.38;;;11.20;87.90;;;;;;6008152;23;20152;-73
2023/05/01 01:01:43;;;;;;;2.50;1.40;;;11.20;87.50;;;;;;6007983;23;20863;-73
2023/05/01 01:04:08;;;;;;;1.42;1.42;;;11.30;87.30;;;;;;6008029;23;20627;-73
2023/05/01 01:06:38;;;;;;;1.50;1.50;;;11.30;87.50;;;;;;6006960;23;20149;-73
2023/05/01 01:09:20;;;;;;;1.50;1.40;;;11.20;87.80;;;;;;6005717;23;20293;-73
2023/05/01 01:12:27;;;;;;;1.52;1.45;;;11.20;87.60;;;;;;6005659;23;20636;-73
2023/05/01 01:15:17;;;;;;;1.42;1.42;;;11.20;87.90;;;;;;5992435;23;20172;-72
2023/05/01 01:17:57;;;;;;;1.13;1.13;;;11.10;88.10;;;;;;6007209;23;20177;-72
2023/05/01 01:20:30;;;;;;;1.35;1.35;;;11.00;88.40;;;;;;6007442;23;20144;-73
2023/05/01 01:23:38;;;;;;;1.80;1.70;;;11.00;89.00;;;;;;6007280;23;20688;-72
2023/05/01 01:26:16;;;;;;;1.25;1.25;;;10.90;89.00;;;;;;5996551;23;20323;-73
2023/05/01 01:29:00;;;;;;;2.00;1.90;;;10.80;89.40;;;;;;6007623;23;20628;-73
2023/05/01 01:31:32;;;;;;;1.75;1.23;;;10.80;89.70;;;;;;6007190;23;20172;-72
2023/05/01 01:34:03;;;;;;;1.60;1.60;;;10.80;89.60;;;;;;6007771;23;20141;-72
2023/05/01 01:36:47;;;;;;;1.45;1.35;;;10.90;88.80;;;;;;6007034;23;20156;-73
2023/05/01 01:39:29;;;;;;;2.00;1.42;;;11.00;87.90;;;;;;6006857;23;20228;-73
2023/05/01 01:41:58;;;;;;;1.52;1.52;;;11.20;87.70;;;;;;6007257;23;20141;-73
2023/05/01 01:44:36;;;;;;;1.58;1.58;;;11.20;87.70;;;;;;6005797;23;20160;-72
2023/05/01 01:47:05;;;;;;;1.55;1.45;;;11.10;88.10;;;;;;6006428;23;20175;-71
2023/05/01 01:49:33;;;;;;;1.80;1.77;;;11.10;88.40;;;;;;6007424;23;20136;-73
2023/05/01 01:52:02;;;;;;;1.70;1.70;;;11.00;88.60;;;;;;6006781;23;20187;-73
2023/05/01 01:54:36;;;;;;;2.72;2.47;;;11.00;88.90;;;;;;6006839;23;20157;-73
2023/05/01 01:57:03;;;;;;;1.75;1.75;;;10.90;89.30;;;;;;6007150;23;20140;-74
2023/05/01 01:59:32;;;;;;;2.92;2.20;;;10.80;89.40;;;;;;6007136;23;20244;-74
2023/05/01 02:02:00;;;;;;;2.40;2.22;;;10.90;89.00;;;;;;6007196;23;20545;-73
2023/05/01 02:04:26;;;;;;;2.95;2.22;;;10.90;88.70;;;;;;6004687;23;20192;-74
2023/05/01 02:06:55;;;;;;;1.83;1.83;;;10.80;89.40;;;;;;6009048;23;20160;-73
2023/05/01 02:09:23;;;;;;;2.03;1.95;;;10.80;89.60;;;;;;6007843;23;20168;-74
2023/05/01 02:11:50;;;;;;;2.33;2.17;;;10.70;89.70;;;;;;6006961;23;20168;-73
2023/05/01 02:14:18;;;;;;;1.83;1.83;;;10.80;89.50;;;;;;6004849;23;20189;-72
2023/05/01 02:16:44;;;;;;;2.00;1.90;;;10.80;89.10;;;;;;6007147;23;20153;-74
2023/05/01 02:19:12;;;;;;;1.65;1.63;;;10.80;88.80;;;;;;6005030;23;20844;-73
2023/05/01 02:21:38;;;;;;;1.80;1.70;;;10.80;88.90;;;;;;6006609;23;20156;-74
2023/05/01 02:24:06;;;;;;;1.55;1.55;;;10.90;88.50;;;;;;6007061;23;20153;-73
2023/05/01 02:26:37;;;;;;;1.60;1.50;;;10.90;88.30;;;;;;6005726;23;20155;-72
2023/05/01 02:29:06;;;;;;;1.55;1.55;;;10.90;88.20;;;;;;6006455;23;20208;-72
2023/05/01 02:31:32;;;;;;;1.85;1.75;;;10.90;88.30;;;;;;6005148;23;20168;-73
2023/05/01 02:33:57;;;;;;;2.40;2.25;;;10.90;88.60;;;;;;6006920;23;20184;-72
2023/05/01 02:36:23;;;;;;;2.28;2.17;;;10.90;88.60;;;;;;6006853;23;20161;-72
2023/05/01 02:38:50;;;;;;;2.72;2.53;;;10.80;88.70;;;;;;6006372;23;20157;-72
2023/05/01 02:41:16;;;;;;;3.80;2.78;;;10.80;88.70;;;;;;6006686;23;20153;-72
2023/05/01 02:43:43;;;;;;;2.30;2.30;;;10.80;89.30;;;;;;6006101;23;20212;-71
2023/05/01 02:46:11;;;;;;;2.42;2.22;;;10.70;89.40;;;;;;6006075;23;20371;-73
2023/05/01 02:48:38;;;;;;;2.97;2.75;;;10.60;89.60;;;;;;6005073;23;20206;-73
2023/05/01 02:51:05;;;;;;;2.33;2.22;;;10.60;89.80;;;;;;6006924;23;20628;-72
2023/05/01 02:53:32;;;;;;;2.78;2.55;;;10.50;90.00;;;;;;6006319;23;20562;-74
2023/05/01 02:55:58;;;;;;;2.58;2.47;;;10.50;90.20;;;;;;6005015;23;20191;-74
2023/05/01 02:58:23;;;;;;;2.60;2.50;;;10.50;90.20;;;;;;6006321;23;20153;-71
2023/05/01 03:00:49;;;;;;;3.25;2.33;;;10.40;90.30;;;;;;6006586;23;20153;-72
2023/05/01 03:03:15;;;;;;;3.67;3.08;;;10.40;90.50;;;;;;6006313;23;20275;-74
2023/05/01 03:05:41;;;;;;;2.85;2.65;;;10.30;90.80;;;;;;6006463;23;20243;-71
2023/05/01 03:08:07;;;;;;;2.85;2.75;;;10.30;91.30;;;;;;6006425;23;20550;-72
2023/05/01 03:10:33;;;;;;;3.50;2.28;;;10.20;91.60;;;;;;6005993;23;20477;-72
2023/05/01 03:12:59;;;;;;;3.13;2.72;;;10.20;91.80;;;;;;6006563;23;20164;-74
2023/05/01 03:15:25;;;;;;;3.72;2.85;;;10.10;91.80;;;;;;6006690;23;20884;-73
2023/05/01 03:17:50;;;;;;;2.20;2.10;;;10.10;91.70;;;;;;6005899;23;20156;-73
2023/05/01 03:20:16;;;;;;;3.08;2.85;;;10.10;91.70;;;;;;6006435;23;20557;-73
2023/05/01 03:22:42;;;;;;;2.90;2.70;;;10.10;92.00;;;;;;6006559;23;20601;-73
2023/05/01 03:25:08;;;;;;;2.72;2.40;;;10.00;91.90;;;;;;6006283;23;20237;-72
2023/05/01 03:27:34;;;;;;;3.78;2.78;;;10.00;92.10;;;;;;6005911;23;20648;-72
2023/05/01 03:29:59;;;;;;;4.20;2.40;;;10.00;92.20;;;;;;6006392;23;20187;-73
2023/05/01 03:32:27;;;;;;;2.60;2.50;;;9.90;92.20;;;;;;6006361;23;20235;-73
2023/05/01 03:34:53;;;;;;;2.70;2.53;;;9.90;92.10;;;;;;6004573;23;20164;-73
2023/05/01 03:37:19;;;;;;;2.65;2.53;;;9.80;92.20;;;;;;6005820;23;20157;-72
2023/05/01 03:39:45;;;;;;;2.60;2.40;;;9.80;92.40;;;;;;6004292;23;20250;-73
2023/05/01 03:42:11;;;;;;;2.33;2.20;;;9.70;93.00;;;;;;6006052;23;20152;-72
2023/05/01 03:44:36;;;;;;;3.25;2.88;;;9.70;92.80;;;;;;6006175;23;20204;-73
2023/05/01 03:47:02;;;;;;;3.70;3.35;;;9.70;92.80;;;;;;6005863;23;20152;-72
2023/05/01 03:49:28;;;;;;;2.75;2.55;;;9.60;93.00;;;;;;6006320;23;20512;-73
2023/05/01 03:51:53;;;;;;;2.63;2.47;;;9.50;93.40;;;;;;6005810;23;20152;-72
2023/05/01 03:54:19;;;;;;;2.67;2.47;;;9.50;93.60;;;;;;6007765;23;20227;-72
2023/05/01 03:56:45;;;;;;;2.97;2.43;;;9.50;93.60;;;;;;6008846;23;20235;-72
2023/05/01 03:59:11;;;;;;;2.60;2.55;;;9.50;93.70;;;;;;6006388;23;20165;-72
2023/05/01 04:01:38;;;;;;;2.90;1.97;;;9.50;93.70;;;;;;6006019;23;20185;-72
2023/05/01 04:04:04;;;;;;;2.55;2.33;;;9.30;94.60;;;;;;6005519;23;20696;-72
2023/05/01 04:06:30;;;;;;;3.63;2.80;;;9.10;95.50;;;;;;6003054;23;20192;-72
2023/05/01 04:08:55;;;;;;;2.30;2.10;;;8.90;96.80;;;;;;6004438;23;20256;-72
2023/05/01 04:11:21;;;;;;;2.30;2.20;;;8.70;97.80;;;;;;6002714;23;20160;-73
2023/05/01 04:13:47;;;;;;;2.57;2.40;;;8.80;97.80;;;;;;6005481;23;20152;-72
2023/05/01 04:16:13;;;;;;;3.97;2.53;;;8.90;97.20;;;;;;6006057;23;20537;-73
2023/05/01 04:18:38;;;;;;;2.07;1.97;;;8.70;98.10;;;;;;6004341;23;20509;-74
2023/05/01 04:21:04;;;;;;;2.10;1.93;;;8.70;98.30;;;;;;6005900;23;20233;-73
2023/05/01 04:23:30;;;;;;;1.77;1.77;;;8.80;97.90;;;;;;6004890;23;20165;-73
2023/05/01 04:25:55;;;;;;;2.33;2.13;;;8.80;98.40;;;;;;6005761;23;20170;-74
2023/05/01 04:28:21;;;;;;;2.87;2.67;;;8.80;98.30;;;;;;6004170;23;20191;-73
2023/05/01 04:30:47;;;;;;;2.07;2.00;;;9.00;97.70;;;;;;6005730;23;20157;-71
2023/05/01 04:33:12;;;;;;;2.37;2.27;;;9.10;97.20;;;;;;6006033;23;20157;-71
2023/05/01 04:35:39;;;;;;;2.05;1.90;;;9.20;96.90;;;;;;6005297;23;20160;-72
2023/05/01 04:38:05;;;;;;;2.00;1.90;;;9.30;96.60;;;;;;6006406;23;20191;-71
2023/05/01 04:40:31;;;;;;;3.53;2.10;;;9.30;96.10;;;;;;6004821;23;20189;-72
2023/05/01 04:42:57;;;;;;;2.87;2.13;;;9.40;96.00;;;;;;6005359;23;20476;-71
2023/05/01 04:45:23;;;;;;;2.87;2.63;;;9.50;95.30;;;;;;6006511;23;20598;-72
2023/05/01 04:47:48;;;;;;;2.70;2.30;;;9.50;95.60;;;;;;6006003;23;20283;-72
2023/05/01 04:50:14;;;;;;;2.63;1.97;;;9.60;95.40;;;;;;6006428;23;20164;-73
2023/05/01 04:52:40;;;;;;;3.17;2.47;;;9.70;95.20;;;;;;6007939;23;20152;-72
2023/05/01 04:55:06;;;;;;;2.63;2.38;;;9.80;94.60;;;;;;6007834;23;20596;-73
2023/05/01 04:57:32;;;;;;;2.25;2.17;;;9.90;94.40;;;;;;6007595;23;20605;-73
2023/05/01 04:59:57;;;;;;;3.22;2.92;;;9.90;94.10;;;;;;6007904;23;20153;-73
2023/05/01 05:02:23;;;;;;;2.20;2.00;;;10.00;93.50;;;;;;6008036;23;20153;-73
2023/05/01 05:04:49;;;;;;;4.45;2.60;;;10.10;93.40;;;;;;6007977;23;20596;-73
2023/05/01 05:07:15;;;;;;;2.42;2.30;;;10.20;93.10;;;;;;6006776;23;20185;-73
2023/05/01 05:09:41;;;;;;;2.92;2.72;;;10.20;92.50;;;;;;6005340;23;20164;-74
2023/05/01 05:12:06;;;;;;;2.42;2.22;;;10.30;92.60;;;;;;6007422;23;20556;-73
2023/05/01 05:14:32;;;;;;;2.33;2.17;;;10.40;92.90;;;;;;6006171;23;20224;-72
2023/05/01 05:16:58;;;;;;;2.10;2.10;;;10.50;92.70;;;;;;6007134;23;20145;-72
2023/05/01 05:19:23;;;;;;;3.53;2.75;;;10.60;92.40;;;;;;6006526;23;20159;-71
2023/05/01 05:21:49;;;;;;;2.95;2.85;;;10.70;92.60;;;;;;6006046;23;20244;-71
2023/05/01 05:24:15;;;;;;;2.30;2.20;;;10.70;92.20;;;;;;6006552;23;20512;-72
2023/05/01 05:26:40;;;;;;;2.20;2.10;;;10.80;91.60;;;;;;6006895;23;20236;-72
2023/05/01 05:29:06;;;;;;;2.70;2.60;;;10.90;91.30;;;;;;6005896;23;20183;-71
2023/05/01 05:31:32;;;;;;;2.25;2.13;;;10.90;91.00;;;;;;6007417;23;20149;-73
2023/05/01 05:33:57;;;;;;;2.42;2.25;;;11.00;90.80;;;;;;6006740;23;20227;-72
2023/05/01 05:36:23;;;;;;;2.35;2.25;;;11.10;90.60;;;;;;6007551;23;20604;-73
2023/05/01 05:38:49;;;;;;;2.53;2.42;;;11.20;90.30;;;;;;6005329;23;20165;-72
2023/05/01 05:41:16;;;;;;;2.35;2.15;;;11.20;90.40;;;;;;6005243;23;20504;-72
2023/05/01 05:43:42;;;;;;;3.25;2.80;;;11.20;90.20;;;;;;6006339;23;20219;-72
2023/05/01 05:46:07;;;;;;;2.63;2.45;;;11.20;91.20;;;;;;6007003;23;20612;-72
2023/05/01 05:48:33;;;;;;;2.70;2.53;;;11.20;90.90;;;;;;6006978;23;20231;-73
2023/05/01 05:51:00;;;;;;;2.63;2.53;;;11.30;90.50;;;;;;6006559;23;20215;-72
2023/05/01 05:53:26;;;;;;;2.40;2.20;;;11.40;90.00;;;;;;6006757;23;20224;-72
2023/05/01 05:55:51;;;;;;;2.65;2.55;;;11.50;89.50;;;;;;6004338;23;20565;-71
2023/05/01 05:58:21;;;;;;;3.22;2.85;;;11.60;89.40;;;;;;6004962;23;20168;-72
2023/05/01 06:00:48;;;;;;;2.33;2.22;;;11.70;89.10;;;;;;6004523;23;20734;-72
2023/05/01 06:03:14;;;;;;;2.75;2.17;;;11.80;89.00;;;;;;6003094;23;20564;-72
2023/05/01 06:05:41;;;;;;;3.10;2.88;;;11.80;88.50;;;;;;6004354;23;20725;-72
2023/05/01 06:08:09;;;;;;;2.88;2.67;;;11.90;88.80;;;;;;6001363;23;20255;-72
2023/05/01 06:10:38;;;;;;;2.97;2.83;;;12.00;88.70;;;;;;6002784;23;20256;-72
2023/05/01 06:13:07;;;;;;;4.05;3.10;;;12.10;88.60;;;;;;6006160;23;20149;-72
2023/05/01 06:15:33;;;;;;;2.95;2.75;;;12.10;88.10;;;;;;6006937;23;20508;-72
2023/05/01 06:17:59;;;;;;;2.92;2.72;;;12.20;87.90;;;;;;6006217;23;20577;-71
2023/05/01 06:20:25;;;;;;;2.38;2.28;;;12.30;87.70;;;;;;6006096;23;20187;-72
2023/05/01 06:22:51;;;;;;;2.80;2.70;;;12.40;87.50;;;;;;6006940;23;20552;-72
2023/05/01 06:25:16;;;;;;;2.88;2.78;;;12.50;87.80;;;;;;6006943;23;20148;-71
2023/05/01 06:27:42;;;;;;;6.50;2.45;;;12.50;87.30;;;;;;6005545;23;20216;-72
2023/05/01 06:30:08;;;;;;;2.80;2.70;;;12.60;87.00;;;;;;6006608;23;20156;-74
2023/05/01 06:32:34;;;;;;;4.78;2.10;;;12.70;87.00;;;;;;6006359;23;20628;-73
2023/05/01 06:35:00;;;;;;;4.47;3.20;;;12.80;86.90;;;;;;6006305;23;20172;-72
2023/05/01 06:37:26;;;;;;;2.83;2.65;;;12.90;86.60;;;;;;6005970;23;20157;-72
2023/05/01 06:39:51;;;;;;;2.95;2.75;;;12.90;86.40;;;;;;6006148;23;20152;-71
2023/05/01 06:42:20;;;;;;;4.22;2.70;;;13.00;86.30;;;;;;6004354;23;20163;-71
2023/05/01 06:44:45;;;;;;;2.95;2.75;;;13.10;86.10;;;;;;6005975;23;20171;-72
2023/05/01 06:47:11;;;;;;;3.42;3.13;;;13.10;86.00;;;;;;6006585;23;20571;-72
2023/05/01 06:49:37;;;;;;;3.17;2.97;;;13.20;85.60;;;;;;6006208;23;20159;-72
2023/05/01 06:52:03;;;;;;;2.97;2.88;;;13.20;85.40;;;;;;6006162;23;20176;-73
2023/05/01 06:54:28;;;;;;;3.70;3.00;;;13.30;85.30;;;;;;6006753;23;20152;-72
2023/05/01 06:56:54;;;;;;;2.78;2.67;;;13.40;85.00;;;;;;6006340;23;20189;-73
2023/05/01 06:59:20;;;;;;;4.15;2.85;;;13.50;84.50;;;;;;6006205;23;20160;-72
2023/05/01 07:01:46;;;;;;;2.97;2.47;;;13.60;84.10;;;;;;6006173;23;20553;-72
2023/05/01 07:04:11;;;;;;;3.75;3.28;;;13.70;83.80;;;;;;6005134;23;20176;-71
2023/05/01 07:06:37;;;;;;;3.30;2.92;;;13.80;83.60;;;;;;6004212;23;20152;-71
2023/05/01 07:09:04;;;;;;;2.80;2.60;;;13.80;83.70;;;;;;6004332;23;20646;-71
2023/05/01 07:11:31;;;;;;;3.13;3.00;;;13.90;83.30;;;;;;6003685;23;20267;-73
2023/05/01 07:13:57;;;;;;;2.60;2.50;;;13.90;82.70;;;;;;6004065;23;20613;-73
2023/05/01 07:16:23;;;;;;;2.90;2.67;;;13.90;82.70;;;;;;6004236;23;20156;-71
2023/05/01 07:18:49;;;;;;;3.28;2.65;;;14.00;82.60;;;;;;6003102;23;20198;-72
2023/05/01 07:21:14;;;;;;;2.47;2.38;;;14.10;82.40;;;;;;6004599;23;21020;-71
2023/05/01 07:23:40;;;;;;;2.45;2.35;;;14.20;82.20;;;;;;6005925;23;20176;-71
2023/05/01 07:26:06;;;;;;;2.85;2.75;;;14.30;82.00;;;;;;6008067;23;20148;-72
2023/05/01 07:28:32;;;;;;;2.80;2.70;;;14.30;81.10;;;;;;6006806;23;20188;-72
2023/05/01 07:30:58;;;;;;;3.08;2.83;;;14.40;81.40;;;;;;6005407;23;20164;-73
2023/05/01 07:33:24;;;;;;;3.42;3.22;;;14.50;81.40;;;;;;6004536;23;20167;-73
2023/05/01 07:35:51;;;;;;;3.33;3.15;;;14.60;81.30;;;;;;6006609;23;20160;-72
2023/05/01 07:38:17;;;;;;;2.90;2.80;;;14.80;81.00;;;;;;6006505;23;20157;-72
2023/05/01 07:40:42;;;;;;;2.92;2.83;;;14.90;80.00;;;;;;6005724;23;20179;-72
2023/05/01 07:43:11;;;;;;;2.80;2.70;;;14.90;79.50;;;;;;6005462;23;20153;-72
2023/05/01 07:45:41;;;;;;;4.03;3.45;;;14.80;78.70;;;;;;6006131;23;20149;-73
2023/05/01 07:48:07;;;;;;;2.95;2.45;;;14.80;78.70;;;;;;6004401;23;20200;-72
2023/05/01 07:50:32;;;;;;;2.55;2.35;;;14.90;78.70;;;;;;6006312;23;20152;-72
2023/05/01 07:52:58;;;;;;;2.38;2.25;;;15.00;78.70;;;;;;6005343;23;20163;-72
2023/05/01 07:55:24;;;;;;;2.53;2.42;;;15.10;79.00;;;;;;6006172;23;20208;-72
2023/05/01 07:57:50;;;;;;;3.25;3.05;;;15.20;79.30;;;;;;6006116;23;20191;-73
2023/05/01 08:00:16;;;;;;;3.38;2.92;;;15.30;79.20;;;;;;6006293;23;20566;-72
2023/05/01 08:02:43;;;;;;;2.83;2.63;;;15.40;79.00;;;;;;6006032;23;20148;-74
2023/05/01 08:05:09;;;;;;;2.80;2.63;;;15.50;78.20;;;;;;6005536;23;20183;-73
2023/05/01 08:07:35;;;;;;;4.40;3.40;;;15.70;77.60;;;;;;6005813;23;20232;-73
2023/05/01 08:10:00;;;;;;;2.88;2.53;;;15.80;76.40;;;;;;6005507;23;20604;-72
2023/05/01 08:12:27;;;;;;;3.13;2.92;;;15.90;76.80;;;;;;6006137;23;20149;-72
2023/05/01 08:14:53;;;;;;;3.10;2.90;;;16.00;76.60;;;;;;6005426;23;20232;-71
2023/05/01 08:17:19;;;;;;;2.35;2.25;;;16.10;76.80;;;;;;6005224;23;20264;-71
2023/05/01 08:19:45;;;;;;;2.83;2.20;;;16.20;76.80;;;;;;6005448;23;20239;-72
2023/05/01 08:22:11;;;;;;;2.25;2.15;;;16.40;76.20;;;;;;6005991;23;20239;-74
2023/05/01 08:24:37;;;;;;;3.88;2.00;;;16.60;75.70;;;;;;6007876;23;20224;-72
2023/05/01 08:27:04;;;;;;;2.13;2.03;;;16.70;74.00;;;;;;6007944;23;20172;-74
2023/05/01 08:29:30;;;;;;;2.45;1.88;;;16.80;74.40;;;;;;6008052;23;20159;-71
2023/05/01 08:31:57;;;;;;;1.77;1.67;;;17.00;73.40;;;;;;6007152;23;20164;-71
2023/05/01 08:34:23;;;;;;;1.55;1.42;;;17.10;72.90;;;;;;6007746;23;20221;-72
2023/05/01 08:36:49;;;;;;;1.73;1.65;;;17.20;71.60;;;;;;6007690;23;20156;-73
2023/05/01 08:39:15;;;;;;;3.13;1.40;;;17.30;72.20;;;;;;6007726;23;20164;-73
2023/05/01 08:41:45;;;;;;;1.50;1.40;;;17.40;71.30;;;;;;6004837;23;20157;-73
2023/05/01 08:44:13;;;;;;;1.70;1.58;;;17.60;70.70;;;;;;6006583;23;20156;-72
2023/05/01 08:46:47;;;;;;;1.70;1.60;;;17.70;70.60;;;;;;6006849;23;20160;-72
2023/05/01 08:49:15;;;;;;;1.55;1.55;;;17.90;70.90;;;;;;6002348;23;20208;-73
2023/05/01 08:51:48;;;;;;;1.50;1.50;;;18.00;70.90;;;;;;6002677;23;20518;-73
2023/05/01 08:54:15;;;;;;;2.60;1.27;;;18.20;70.10;;;;;;6004684;23;20167;-73
2023/05/01 08:56:43;;;;;;;4.00;1.83;;;18.30;70.60;;;;;;6005740;23;20184;-70
2023/05/01 08:59:13;;;;;;;2.05;1.58;;;18.50;69.60;;;;;;6003487;23;20639;-69
2023/05/01 09:01:40;;;;;;;1.73;1.73;;;18.60;69.80;;;;;;6003466;23;20164;-70
2023/05/01 09:04:06;;;;;;;1.52;1.52;;;18.70;69.70;;;;;;6004034;23;20509;-74
2023/05/01 09:06:32;;;;;;;1.45;1.33;;;18.90;69.10;;;;;;6000735;23;20191;-73
2023/05/01 09:08:58;;;;;;;1.10;1.10;;;19.00;68.00;;;;;;6006635;23;20558;-73
2023/05/01 09:11:24;;;;;;;1.10;1.10;;;19.20;67.50;;;;;;6007553;23;20183;-72
2023/05/01 09:13:51;;;;;;;1.13;1.13;;;19.30;66.80;;;;;;6007345;23;20187;-74
2023/05/01 09:16:17;;;;;;;1.10;1.10;;;19.50;65.70;;;;;;6006619;23;20180;-72
2023/05/01 09:18:43;;;;;;;0.98;0.98;;;19.70;65.50;;;;;;6005861;23;20697;-71
2023/05/01 09:21:12;;;;;;;1.00;1.00;;;19.80;65.60;;;;;;6004536;23;20180;-72
2023/05/01 09:23:39;;;;;;;0.70;0.70;;;19.90;64.70;;;;;;6006971;23;20176;-72
2023/05/01 09:26:06;;;;;;;0.90;0.90;;;20.10;64.60;;;;;;6005047;23;20211;-73
2023/05/01 09:28:43;;;;;;;0.90;0.90;;;20.20;63.90;;;;;;6007125;23;20224;-73
2023/05/01 09:31:22;;;;;;;2.20;0.95;;;20.60;63.70;;;;;;6004885;23;20188;-73
2023/05/01 09:33:59;;;;;;;1.95;1.10;;;20.90;63.60;;;;;;6006965;23;20254;-73
2023/05/01 09:36:27;;;;;;;0.90;0.90;;;21.30;62.60;;;;;;6006326;23;20180;-73
2023/05/01 09:38:53;;;;;;;1.20;0.85;;;21.70;61.90;;;;;;6006748;23;20640;-73
2023/05/01 09:41:22;;;;;;;1.10;1.10;;;22.30;61.40;;;;;;6006668;23;20195;-73
2023/05/01 09:43:50;;;;;;;0.75;0.75;;;22.90;59.20;;;;;;6006635;23;20212;-73
2023/05/01 09:46:16;;;;;;;0.90;0.90;;;23.60;58.50;;;;;;6006540;23;20578;-73
2023/05/01 09:48:52;;;;;;;1.02;1.02;;;24.70;57.00;;;;;;6006904;23;20200;-72
2023/05/01 09:51:27;;;;;;;0.98;0.98;;;25.30;57.20;;;;;;6004197;23;20183;-73
2023/05/01 09:54:03;;;;;;;1.00;1.00;;;26.10;55.00;;;;;;6006490;23;20180;-73
2023/05/01 09:56:31;;;;;;;2.53;1.08;;;26.80;53.90;;;;;;6006766;23;20251;-73
2023/05/01 09:59:13;;;;;;;0.80;0.75;;;27.70;52.70;;;;;;6006426;23;20172;-73
2023/05/01 10:01:45;;;;;;;1.02;0.80;;;28.20;50.80;;;;;;6006333;23;20255;-73
2023/05/01 10:04:11;;;;;;;1.13;1.13;;;28.50;49.40;;;;;;6004464;23;20192;-72
2023/05/01 10:06:38;;;;;;;1.85;0.90;;;28.60;50.40;;;;;;6006617;23;20255;-71
2023/05/01 10:09:06;;;;;;;1.10;1.10;;;28.90;49.00;;;;;;6006367;23;20200;-71
2023/05/01 10:11:48;;;;;;;0.85;0.85;;;29.20;49.60;;;;;;6006866;23;20692;-71
2023/05/01 10:14:13;;;;;;;1.65;1.23;;;29.40;49.00;;;;;;6005037;23;20181;-71
2023/05/01 10:16:39;;;;;;;2.42;1.38;;;29.80;48.80;;;;;;6006516;23;20176;-71
2023/05/01 10:19:05;;;;;;;1.27;1.27;;;30.20;48.20;;;;;;6006132;23;20188;-72
2023/05/01 10:21:32;;;;;;;0.85;0.85;;;30.90;47.00;;;;;;6005334;23;20267;-71
2023/05/01 10:23:59;;;;;;;0.85;0.85;;;31.30;46.90;;;;;;6004704;23;20164;-71
2023/05/01 10:26:26;;;;;;;0.90;0.90;;;31.80;45.70;;;;;;6004815;23;20570;-72
2023/05/01 10:28:52;;;;;;;1.50;1.27;;;32.30;44.90;;;;;;6004807;23;20655;-71
2023/05/01 10:31:18;;;;;;;2.33;1.25;;;32.60;45.50;;;;;;6005185;23;20310;-72
2023/05/01 10:33:45;;;;;;;0.93;0.93;;;32.60;45.00;;;;;;6004668;23;20597;-72
2023/05/01 10:36:19;;;;;;;1.50;1.40;;;32.60;45.00;;;;;;6004472;23;20156;-71
2023/05/01 10:38:47;;;;;;;1.20;1.20;;;32.70;45.20;;;;;;6006385;23;20166;-71
2023/05/01 10:41:14;;;;;;;1.75;0.90;;;33.10;45.00;;;;;;6005612;23;20164;-71
2023/05/01 10:43:40;;;;;;;0.90;0.90;;;33.50;46.30;;;;;;6005216;23;20593;-72
2023/05/01 10:46:09;;;;;;;0.90;0.90;;;33.50;45.00;;;;;;6007159;23;20159;-71
2023/05/01 10:48:41;;;;;;;1.33;1.25;;;33.10;44.50;;;;;;6006310;23;20184;-72
2023/05/01 10:51:19;;;;;;;0.80;0.80;;;32.70;46.20;;;;;;6006867;23;20183;-72
2023/05/01 10:53:45;;;;;;;1.30;1.00;;;32.40;47.10;;;;;;6007434;23;20545;-71
2023/05/01 10:56:29;;;;;;;0.90;0.90;;;32.40;45.80;;;;;;6007123;23;20159;-71
2023/05/01 10:58:56;;;;;;;0.80;0.80;;;31.30;44.70;;;;;;6006686;23;20263;-71
2023/05/01 11:01:34;;;;;;;0.77;0.77;;;30.40;46.20;;;;;;6005386;23;20155;-71
2023/05/01 11:04:08;;;;;;;0.80;0.80;;;29.60;47.90;;;;;;6006893;23;20203;-71
2023/05/01 11:06:35;;;;;;;0.80;0.80;;;28.80;48.50;;;;;;6006965;23;20139;-70
2023/05/01 11:09:01;;;;;;;0.90;0.90;;;28.30;49.80;;;;;;6005146;23;20604;-71
2023/05/01 11:11:27;;;;;;;0.93;0.93;;;27.80;51.40;;;;;;6006658;23;20179;-71
2023/05/01 11:13:58;;;;;;;0.85;0.85;;;27.60;50.20;;;;;;6006709;23;20148;-73
2023/05/01 11:16:36;;;;;;;0.68;0.68;;;27.20;51.10;;;;;;6006927;23;20159;-72
2023/05/01 11:19:29;;;;;;;0.70;0.70;;;26.70;50.10;;;;;;6006518;23;20175;-71
2023/05/01 11:21:55;;;;;;;0.77;0.77;;;26.40;51.40;;;;;;6002243;23;20167;-72
2023/05/01 11:24:31;;;;;;;1.00;1.00;;;25.80;52.60;;;;;;6006720;23;20152;-71
2023/05/01 11:26:58;;;;;;;0.93;0.93;;;25.30;52.80;;;;;;6006410;23;20136;-71
2023/05/01 11:29:31;;;;;;;0.70;0.70;;;25.40;54.60;;;;;;6006779;23;20184;-71
2023/05/01 11:31:57;;;;;;;0.60;0.60;;;26.00;53.40;;;;;;6006984;23;20197;-75
2023/05/01 11:34:24;;;;;;;0.95;0.95;;;26.80;51.90;;;;;;6006645;23;20605;-73
2023/05/01 11:36:50;;;;;;;1.05;0.63;;;27.00;51.20;;;;;;6006446;23;20152;-71
2023/05/01 11:39:17;;;;;;;1.40;0.80;;;27.20;50.00;;;;;;6006708;23;20208;-70
2023/05/01 11:41:43;;;;;;;0.70;0.70;;;27.40;49.10;;;;;;6004982;23;20629;-72
2023/05/01 11:44:11;;;;;;;0.80;0.80;;;27.80;49.40;;;;;;6006384;23;20152;-72
2023/05/01 11:46:37;;;;;;;0.68;0.68;;;28.50;49.30;;;;;;6006439;23;20558;-72
2023/05/01 11:49:03;;;;;;;0.60;0.60;;;29.40;48.30;;;;;;6006254;23;20184;-71
2023/05/01 11:51:29;;;;;;;0.73;0.70;;;30.20;47.90;;;;;;6006756;23;20494;-70
2023/05/01 11:54:02;;;;;;;0.60;0.60;;;30.80;46.20;;;;;;6006557;23;20153;-70
2023/05/01 11:56:28;;;;;;;0.70;0.70;;;31.60;46.80;;;;;;6004873;23;20772;-70
2023/05/01 11:58:56;;;;;;;2.05;0.90;;;31.60;45.40;;;;;;6006242;23;20243;-71
2023/05/01 12:01:35;;;;;;;0.80;0.80;;;31.00;45.60;;;;;;6006487;23;20155;-71
2023/05/01 12:04:02;;;;;;;0.73;0.73;;;29.90;45.40;;;;;;6004696;23;20153;-71
2023/05/01 12:06:43;;;;;;;0.80;0.80;;;28.80;47.90;;;;;;6005935;23;20362;-71
2023/05/01 12:09:14;;;;;;;0.60;0.60;;;27.80;48.30;;;;;;6002902;23;20199;-71
2023/05/01 12:11:41;;;;;;;0.80;0.80;;;26.90;51.00;;;;;;6005952;23;20144;-71
2023/05/01 12:14:08;;;;;;;0.70;0.70;;;26.00;50.30;;;;;;6005825;23;20507;-73
2023/05/01 12:16:34;;;;;;;0.77;0.60;;;25.20;51.90;;;;;;6004208;23;20168;-72
2023/05/01 12:19:00;;;;;;;0.63;0.63;;;24.60;53.60;;;;;;6005368;23;20166;-73
2023/05/01 12:21:27;;;;;;;0.63;0.63;;;24.20;54.00;;;;;;6007063;23;20152;-75
2023/05/01 12:23:57;;;;;;;0.80;0.80;;;23.90;53.90;;;;;;6006013;23;20503;-75
2023/05/01 12:26:26;;;;;;;0.60;0.60;;;23.40;54.00;;;;;;6008771;23;20180;-74
2023/05/01 12:28:56;;;;;;;0.60;0.50;;;23.70;54.00;;;;;;6004947;23;20182;-74
2023/05/01 12:31:23;;;;;;;0.50;0.50;;;23.90;52.20;;;;;;6006183;23;20145;-75
2023/05/01 12:34:04;;;;;;;0.77;0.77;;;23.70;52.00;;;;;;6004319;23;20392;-74
2023/05/01 12:36:33;;;;;;;0.43;0.43;;;23.40;53.30;;;;;;6004152;23;20152;-73
2023/05/01 12:39:05;;;;;;;0.40;0.40;;;23.00;52.70;;;;;;6005264;23;20283;-74
2023/05/01 12:41:38;;;;;;;0.50;0.50;;;22.70;53.50;;;;;;6002733;23;20163;-76
2023/05/01 12:44:29;;;;;;;0.45;0.45;;;22.60;54.30;;;;;;6005983;23;20609;-76
2023/05/01 12:46:58;;;;;;;0.73;0.40;;;23.00;54.00;;;;;;6003799;23;20161;-77
2023/05/01 12:49:25;;;;;;;0.55;0.55;;;23.10;55.10;;;;;;6003511;23;20200;-76
2023/05/01 12:51:53;;;;;;;0.55;0.55;;;23.50;55.20;;;;;;6003958;23;20167;-74